createdAt,value
2022-12-18T00:01:07.185Z,33.38
2022-12-18T00:03:34.808Z,33.28
2022-12-18T00:06:01.498Z,32.53
2022-12-18T00:08:28.943Z,32.17
2022-12-18T00:10:55.527Z,30.65
2022-12-18T00:13:26.166Z,33.17
2022-12-18T00:15:54.338Z,32.22
2022-12-18T00:18:23.159Z,31.60
2022-12-18T00:20:49.522Z,34.33
2022-12-18T00:23:15.908Z,30.73
2022-12-18T00:25:42.386Z,29.02
2022-12-18T00:28:08.791Z,31.58
2022-12-18T00:30:35.185Z,29.75
2022-12-18T00:33:01.599Z,29.98
2022-12-18T00:35:28.011Z,31.35
2022-12-18T00:37:54.399Z,30.60
2022-12-18T00:40:20.886Z,30.05
2022-12-18T00:42:59.130Z,32.83
2022-12-18T00:45:31.347Z,31.92
2022-12-18T00:47:58.397Z,30.08
2022-12-18T00:50:25.985Z,31.30
2022-12-18T00:52:53.017Z,29.38
2022-12-18T00:55:19.794Z,28.77
2022-12-18T00:57:46.193Z,28.92
2022-12-18T01:00:14.934Z,30.40
2022-12-18T01:02:42.127Z,30.38
2022-12-18T01:05:10.875Z,30.83
2022-12-18T01:07:37.583Z,29.60
2022-12-18T01:10:05.368Z,30.52
2022-12-18T01:12:32.057Z,30.33
2022-12-18T01:14:58.558Z,31.33
2022-12-18T01:17:24.997Z,30.25
2022-12-18T01:19:51.394Z,29.95
2022-12-18T01:22:17.784Z,30.88
2022-12-18T01:24:44.221Z,30.15
2022-12-18T01:27:10.765Z,29.55
2022-12-18T01:29:37.197Z,26.70
2022-12-18T01:32:03.790Z,30.17
2022-12-18T01:34:30.246Z,30.17
2022-12-18T01:36:56.703Z,29.35
2022-12-18T01:39:23.273Z,29.65
2022-12-18T01:42:04.652Z,32.72
2022-12-18T01:44:58.514Z,27.95
2022-12-18T01:47:39.375Z,29.58
2022-12-18T01:50:18.618Z,28.30
2022-12-18T01:52:48.600Z,30.38
2022-12-18T01:57:43.721Z,27.58
2022-12-18T02:00:17.399Z,28.08
2022-12-18T02:02:46.076Z,28.70
2022-12-18T02:05:15.861Z,28.20
2022-12-18T02:07:54.234Z,28.95
2022-12-18T02:10:48.088Z,26.67
2022-12-18T02:13:22.450Z,28.15
2022-12-18T02:16:30.010Z,30.20
2022-12-18T02:19:01.270Z,29.40
2022-12-18T02:22:02.359Z,29.45
2022-12-18T02:24:53.720Z,29.00
2022-12-18T02:27:20.572Z,29.80
2022-12-18T02:29:58.656Z,27.50
2022-12-18T02:32:29.006Z,27.95
2022-12-18T02:37:26.762Z,28.58
2022-12-18T02:39:55.902Z,29.13
2022-12-18T02:42:23.289Z,29.17
2022-12-18T02:44:51.904Z,27.83
2022-12-18T02:47:22.785Z,29.80
2022-12-18T02:50:23.072Z,29.55
2022-12-18T02:53:18.305Z,27.10
2022-12-18T02:55:53.772Z,27.98
2022-12-18T02:58:31.513Z,30.17
2022-12-18T03:01:16.797Z,28.98
2022-12-18T03:03:51.357Z,29.75
2022-12-18T03:06:27.903Z,29.92
2022-12-18T03:09:00.169Z,29.65
2022-12-18T03:11:48.344Z,28.35
2022-12-18T03:14:17.580Z,27.48
2022-12-18T03:16:45.725Z,26.83
2022-12-18T03:19:19.805Z,27.48
2022-12-18T03:21:50.532Z,28.10
2022-12-18T03:24:20.723Z,28.23
2022-12-18T03:26:51.952Z,29.33
2022-12-18T03:29:23.539Z,26.25
2022-12-18T03:31:55.953Z,28.92
2022-12-18T03:34:30.554Z,27.10
2022-12-18T03:36:57.240Z,27.58
2022-12-18T03:39:23.712Z,28.50
2022-12-18T03:42:02.256Z,26.67
2022-12-18T03:44:56.833Z,29.88
2022-12-18T03:47:44.973Z,27.52
2022-12-18T03:50:21.552Z,27.80
2022-12-18T03:52:54.171Z,26.30
2022-12-18T03:55:22.800Z,27.25
2022-12-18T03:57:50.352Z,27.98
2022-12-18T04:00:20.147Z,27.25
2022-12-18T04:02:53.820Z,29.05
2022-12-18T04:05:21.616Z,28.35
2022-12-18T04:07:50.538Z,28.92
2022-12-18T04:10:18.007Z,29.25
2022-12-18T04:12:44.826Z,28.02
2022-12-18T04:15:13.017Z,28.83
2022-12-18T04:17:41.143Z,29.40
2022-12-18T04:20:07.984Z,29.17
2022-12-18T04:22:34.493Z,28.75
2022-12-18T04:25:01.188Z,26.88
2022-12-18T04:27:27.745Z,29.13
2022-12-18T04:29:54.151Z,27.45
2022-12-18T04:32:20.600Z,27.05
2022-12-18T04:34:47.031Z,26.45
2022-12-18T04:37:13.581Z,25.73
2022-12-18T04:39:40.211Z,28.25
2022-12-18T04:42:06.766Z,26.38
2022-12-18T04:44:33.186Z,26.23
2022-12-18T04:46:59.684Z,25.02
2022-12-18T04:49:26.180Z,26.08
2022-12-18T04:51:53.889Z,27.52
2022-12-18T04:54:20.456Z,25.50
2022-12-18T04:56:47.683Z,25.10
2022-12-18T04:59:14.217Z,25.70
2022-12-18T05:01:40.887Z,26.25
2022-12-18T05:04:07.768Z,26.98
2022-12-18T05:06:34.178Z,26.83
2022-12-18T05:09:00.606Z,27.27
2022-12-18T05:11:27.045Z,24.83
2022-12-18T05:13:53.495Z,25.98
2022-12-18T05:16:19.993Z,25.10
2022-12-18T05:18:46.447Z,25.67
2022-12-18T05:21:13.116Z,25.90
2022-12-18T05:23:39.826Z,26.25
2022-12-18T05:26:07.576Z,26.55
2022-12-18T05:28:35.871Z,29.55
2022-12-18T05:31:04.503Z,29.00
2022-12-18T05:33:33.975Z,25.08
2022-12-18T05:36:05.840Z,25.75
2022-12-18T05:38:34.135Z,28.33
2022-12-18T05:41:00.935Z,27.90
2022-12-18T05:43:28.224Z,29.70
2022-12-18T05:45:55.410Z,28.73
2022-12-18T05:48:24.945Z,28.30
2022-12-18T05:50:52.017Z,29.00
2022-12-18T05:53:20.807Z,27.35
2022-12-18T05:55:48.030Z,27.67
2022-12-18T05:58:15.587Z,28.85
2022-12-18T06:00:44.153Z,29.33
2022-12-18T06:03:13.492Z,26.77
2022-12-18T06:05:45.052Z,29.10
2022-12-18T06:08:13.292Z,26.73
2022-12-18T06:10:40.823Z,29.33
2022-12-18T06:13:07.873Z,28.13
2022-12-18T06:15:37.350Z,28.33
2022-12-18T06:18:04.199Z,30.63
2022-12-18T06:20:33.411Z,31.02
2022-12-18T06:23:00.536Z,29.23
2022-12-18T06:25:27.129Z,30.40
2022-12-18T06:27:53.524Z,29.13
2022-12-18T06:30:20.690Z,29.40
2022-12-18T06:32:53.056Z,30.30
2022-12-18T06:35:22.809Z,29.08
2022-12-18T06:37:49.397Z,28.90
2022-12-18T06:40:15.788Z,30.38
2022-12-18T06:42:42.216Z,28.23
2022-12-18T06:45:09.163Z,28.98
2022-12-18T06:47:35.611Z,28.92
2022-12-18T06:50:02.021Z,30.52
2022-12-18T06:52:28.509Z,30.58
2022-12-18T06:54:54.949Z,28.73
2022-12-18T06:57:21.976Z,29.73
2022-12-18T06:59:48.342Z,28.25
2022-12-18T07:02:15.126Z,28.88
2022-12-18T07:04:41.814Z,28.77
2022-12-18T07:07:08.182Z,27.30
2022-12-18T07:09:34.713Z,28.45
2022-12-18T07:12:01.198Z,29.35
2022-12-18T07:14:27.822Z,30.10
2022-12-18T07:16:54.896Z,26.55
2022-12-18T07:19:21.454Z,27.52
2022-12-18T07:21:48.030Z,26.27
2022-12-18T07:24:14.443Z,26.50
2022-12-18T07:26:40.989Z,29.10
2022-12-18T07:29:07.396Z,26.83
2022-12-18T07:31:33.830Z,27.98
2022-12-18T07:34:00.384Z,26.80
2022-12-18T07:36:26.965Z,24.63
2022-12-18T07:38:53.876Z,28.02
2022-12-18T07:41:20.858Z,26.55
2022-12-18T07:43:48.090Z,26.92
2022-12-18T07:46:16.575Z,27.52
2022-12-18T07:48:44.791Z,27.77
2022-12-18T07:51:13.410Z,27.40
2022-12-18T07:53:40.740Z,26.17
2022-12-18T07:56:28.082Z,27.40
2022-12-18T07:58:55.979Z,27.27
2022-12-18T08:01:22.526Z,26.88
2022-12-18T08:03:49.047Z,26.75
2022-12-18T08:06:17.672Z,27.65
2022-12-18T08:08:44.128Z,27.10
2022-12-18T08:11:10.487Z,24.30
2022-12-18T08:13:37.284Z,26.77
2022-12-18T08:16:06.693Z,25.63
2022-12-18T08:18:34.831Z,27.90
2022-12-18T08:21:12.392Z,27.55
2022-12-18T08:23:42.545Z,25.23
2022-12-18T08:26:19.128Z,27.35
2022-12-18T08:28:46.113Z,26.88
2022-12-18T08:31:12.839Z,27.98
2022-12-18T08:33:40.596Z,27.25
2022-12-18T08:36:09.497Z,25.67
2022-12-18T08:38:35.962Z,26.00
2022-12-18T08:41:12.040Z,27.92
2022-12-18T08:43:57.700Z,27.13
2022-12-18T08:46:28.748Z,28.67
2022-12-18T08:48:56.991Z,28.73
2022-12-18T08:51:23.816Z,28.98
2022-12-18T08:53:50.403Z,29.13
2022-12-18T08:56:17.088Z,27.17
2022-12-18T08:58:43.728Z,28.85
2022-12-18T09:01:12.205Z,29.40
2022-12-18T09:03:39.700Z,28.00
2022-12-18T09:06:07.082Z,26.98
2022-12-18T09:08:37.829Z,26.45
2022-12-18T09:11:04.835Z,27.23
2022-12-18T09:13:31.328Z,29.45
2022-12-18T09:15:57.976Z,26.23
2022-12-18T09:18:25.156Z,28.75
2022-12-18T09:20:53.660Z,26.08
2022-12-18T09:23:20.876Z,28.33
2022-12-18T09:25:47.335Z,27.90
2022-12-18T09:28:15.587Z,27.77
2022-12-18T09:30:45.154Z,27.67
2022-12-18T09:33:11.973Z,27.48
2022-12-18T09:35:39.861Z,27.65
2022-12-18T09:38:06.921Z,26.13
2022-12-18T09:40:41.083Z,25.50
2022-12-18T09:43:11.854Z,26.55
2022-12-18T09:45:53.443Z,25.13
2022-12-18T09:48:29.178Z,26.27
2022-12-18T09:51:01.643Z,29.08
2022-12-18T09:53:33.557Z,26.33
2022-12-18T09:56:04.181Z,28.67
2022-12-18T09:58:46.247Z,25.25
2022-12-18T10:01:22.064Z,26.90
2022-12-18T10:03:49.036Z,27.40
2022-12-18T10:06:40.324Z,25.95
2022-12-18T10:09:22.467Z,27.55
2022-12-18T10:12:08.004Z,28.08
2022-12-18T10:14:49.407Z,27.25
2022-12-18T10:17:24.987Z,27.35
2022-12-18T10:20:02.494Z,27.48
2022-12-18T10:23:00.325Z,27.38
2022-12-18T10:25:36.228Z,27.80
2022-12-18T10:28:14.749Z,25.92
2022-12-18T10:30:43.414Z,27.00
2022-12-18T10:33:19.481Z,25.67
2022-12-18T10:35:48.011Z,24.17
2022-12-18T10:38:17.515Z,24.70
2022-12-18T10:40:57.739Z,26.33
2022-12-18T10:46:03.470Z,23.98
2022-12-18T10:48:31.442Z,24.67
2022-12-18T10:51:13.987Z,24.40
2022-12-18T10:53:43.566Z,25.60
2022-12-18T10:56:10.391Z,27.38
2022-12-18T10:58:39.631Z,24.45
2022-12-18T11:01:18.229Z,24.33
2022-12-18T11:03:47.017Z,24.00
2022-12-18T11:06:16.164Z,25.63
2022-12-18T11:08:45.673Z,23.30
2022-12-18T11:11:22.812Z,22.27
2022-12-18T11:14:05.381Z,22.27
2022-12-18T11:16:57.890Z,21.38
2022-12-18T11:19:38.077Z,23.23
2022-12-18T11:22:27.396Z,22.98
2022-12-18T11:25:30.327Z,22.08
2022-12-18T11:28:23.810Z,21.20
2022-12-18T11:30:50.239Z,20.30
2022-12-18T11:33:21.714Z,22.05
2022-12-18T11:35:55.268Z,23.35
2022-12-18T11:38:27.743Z,21.20
2022-12-18T11:41:03.159Z,21.75
2022-12-18T11:43:39.670Z,21.80
2022-12-18T11:46:20.382Z,22.10
2022-12-18T11:49:18.278Z,23.52
2022-12-18T11:51:59.780Z,22.10
2022-12-18T11:54:26.221Z,21.58
2022-12-18T11:57:35.850Z,23.13
2022-12-18T12:00:15.903Z,21.58
2022-12-18T12:03:16.621Z,23.38
2022-12-18T12:06:02.693Z,24.20
2022-12-18T12:08:52.948Z,21.17
2022-12-18T12:14:10.190Z,21.52
2022-12-18T12:16:49.897Z,24.90
2022-12-18T12:19:38.265Z,22.88
2022-12-18T12:22:18.159Z,23.13
2022-12-18T12:25:00.431Z,22.40
2022-12-18T12:27:36.593Z,22.95
2022-12-18T12:30:06.539Z,23.30
2022-12-18T12:33:06.607Z,22.42
2022-12-18T12:35:52.057Z,22.17
2022-12-18T12:38:27.416Z,22.85
2022-12-18T12:41:04.224Z,23.88
2022-12-18T12:43:47.878Z,24.92
2022-12-18T12:46:19.880Z,22.35
2022-12-18T12:48:50.049Z,23.45
2022-12-18T12:51:35.973Z,24.03
2022-12-18T12:54:05.938Z,22.40
2022-12-18T12:57:08.105Z,24.23
2022-12-18T13:00:11.266Z,22.17
2022-12-18T13:02:41.005Z,24.52
2022-12-18T13:05:20.069Z,22.70
2022-12-18T13:08:00.475Z,23.33
2022-12-18T13:10:44.226Z,24.90
2022-12-18T13:13:13.103Z,22.65
2022-12-18T13:15:40.617Z,23.15
2022-12-18T13:18:10.159Z,24.17
2022-12-18T13:20:41.099Z,24.20
2022-12-18T13:23:26.121Z,22.92
2022-12-18T13:25:59.853Z,25.13
2022-12-18T13:28:44.445Z,24.38
2022-12-18T13:31:11.117Z,23.83
2022-12-18T13:34:16.578Z,25.65
2022-12-18T13:36:32.675Z,25.52
2022-12-18T13:39:29.992Z,24.85
2022-12-18T13:42:05.660Z,24.25
2022-12-18T13:44:40.222Z,24.40
2022-12-18T13:47:34.739Z,24.17
2022-12-18T13:50:10.405Z,26.95
2022-12-18T13:52:40.299Z,23.70
2022-12-18T13:55:17.033Z,24.47
2022-12-18T13:57:43.483Z,26.67
2022-12-18T14:00:26.089Z,27.50
2022-12-18T14:02:53.222Z,26.58
2022-12-18T14:05:34.464Z,26.52
2022-12-18T14:08:12.046Z,26.75
2022-12-18T14:10:49.937Z,28.88
2022-12-18T14:13:24.158Z,29.60
2022-12-18T14:15:51.443Z,30.02
2022-12-18T14:18:32.961Z,29.75
2022-12-18T14:21:02.616Z,31.58
2022-12-18T14:23:41.939Z,33.65
2022-12-18T14:26:28.938Z,29.77
2022-12-18T14:29:02.208Z,30.80
2022-12-18T14:31:31.414Z,32.47
2022-12-18T14:33:57.909Z,31.23
2022-12-18T14:36:26.993Z,32.63
2022-12-18T14:38:55.648Z,30.25
2022-12-18T14:41:23.035Z,31.38
2022-12-18T14:43:52.769Z,31.00
2022-12-18T14:46:43.325Z,32.13
2022-12-18T14:49:35.552Z,32.45
2022-12-18T14:52:06.383Z,29.92
2022-12-18T14:54:37.940Z,31.60
2022-12-18T14:57:35.258Z,33.17
2022-12-18T15:00:06.720Z,33.70
2022-12-18T15:02:36.876Z,29.95
2022-12-18T15:07:44.421Z,29.67
2022-12-18T15:10:14.719Z,34.47
2022-12-18T15:13:06.999Z,33.05
2022-12-18T15:15:46.079Z,33.35
2022-12-18T15:18:19.152Z,33.95
2022-12-18T15:20:46.009Z,33.67
2022-12-18T15:23:23.665Z,33.38
2022-12-18T15:25:58.427Z,34.55
2022-12-18T15:28:36.232Z,33.58
2022-12-18T15:31:04.207Z,32.97
2022-12-18T15:33:33.750Z,33.15
2022-12-18T15:36:03.489Z,33.00
2022-12-18T15:38:30.496Z,37.15
2022-12-18T15:40:57.856Z,34.80
2022-12-18T15:43:34.625Z,36.00
2022-12-18T15:46:14.316Z,35.45
2022-12-18T15:48:49.142Z,35.00
2022-12-18T15:51:25.188Z,35.22
2022-12-18T15:53:55.469Z,37.05
2022-12-18T15:56:40.451Z,37.08
2022-12-18T15:59:25.109Z,35.70
2022-12-18T16:01:53.942Z,36.22
2022-12-18T16:04:22.411Z,36.92
2022-12-18T16:09:36.695Z,37.22
2022-12-18T16:12:03.279Z,33.45
2022-12-18T16:14:30.786Z,38.17
2022-12-18T16:16:59.770Z,35.35
2022-12-18T16:19:27.082Z,36.30
2022-12-18T16:21:56.092Z,36.72
2022-12-18T16:24:28.336Z,35.92
2022-12-18T16:26:56.518Z,37.10
2022-12-18T16:29:27.738Z,34.97
2022-12-18T16:31:59.436Z,35.03
2022-12-18T16:34:29.328Z,34.40
2022-12-18T16:37:06.190Z,36.78
2022-12-18T16:39:37.376Z,33.42
2022-12-18T16:42:07.250Z,33.42
2022-12-18T16:44:34.662Z,33.10
2022-12-18T16:47:03.332Z,36.75
2022-12-18T16:49:30.974Z,33.85
2022-12-18T16:51:58.036Z,31.55
2022-12-18T16:54:24.941Z,33.92
2022-12-18T16:56:52.129Z,36.38
2022-12-18T16:59:18.597Z,33.88
2022-12-18T17:01:45.209Z,34.83
2022-12-18T17:04:11.943Z,36.22
2022-12-18T17:06:44.797Z,32.15
2022-12-18T17:09:18.276Z,35.17
2022-12-18T17:11:44.719Z,34.38
2022-12-18T17:14:23.033Z,33.28
2022-12-18T17:17:07.249Z,34.58
2022-12-18T17:19:34.283Z,30.52
2022-12-18T17:22:00.780Z,36.08
2022-12-18T17:24:31.409Z,32.67
2022-12-18T17:27:00.835Z,35.60
2022-12-18T17:29:27.245Z,33.80
2022-12-18T17:31:53.695Z,33.63
2022-12-18T17:34:22.024Z,30.92
2022-12-18T17:36:48.571Z,31.77
2022-12-18T17:39:19.188Z,33.08
2022-12-18T17:41:46.106Z,32.33
2022-12-18T17:44:12.831Z,32.58
2022-12-18T17:46:39.438Z,33.45
2022-12-18T17:49:06.133Z,31.52
2022-12-18T17:51:32.580Z,33.97
2022-12-18T17:53:59.063Z,30.85
2022-12-18T17:56:26.159Z,31.98
2022-12-18T17:58:52.647Z,31.85
2022-12-18T18:01:23.257Z,30.75
2022-12-18T18:03:50.976Z,29.30
2022-12-18T18:06:20.360Z,30.73
2022-12-18T18:08:47.059Z,33.80
2022-12-18T18:11:35.685Z,32.90
2022-12-18T18:14:05.174Z,30.40
2022-12-18T18:16:35.187Z,31.65
2022-12-18T18:19:04.342Z,30.02
2022-12-18T18:21:32.082Z,31.25
2022-12-18T18:24:03.054Z,31.50
2022-12-18T18:28:59.851Z,30.83
2022-12-18T18:31:29.988Z,31.67
2022-12-18T18:33:57.174Z,30.05
2022-12-18T18:36:24.309Z,26.92
2022-12-18T18:38:51.731Z,28.33
2022-12-18T18:41:19.035Z,27.23
2022-12-18T18:43:45.756Z,30.25
2022-12-18T18:46:15.761Z,28.27
2022-12-18T18:48:43.736Z,29.48
2022-12-18T18:51:15.601Z,30.45
2022-12-18T18:53:49.839Z,28.25
2022-12-18T18:56:45.612Z,26.65
2022-12-18T18:59:05.819Z,26.93
2022-12-18T19:01:32.930Z,26.33
2022-12-18T19:04:02.574Z,27.00
2022-12-18T19:06:29.840Z,26.25
2022-12-18T19:08:57.348Z,25.15
2022-12-18T19:11:44.293Z,29.33
2022-12-18T19:14:13.326Z,26.48
2022-12-18T19:16:40.218Z,27.15
2022-12-18T19:19:08.105Z,26.52
2022-12-18T19:21:35.584Z,26.13
2022-12-18T19:24:02.839Z,27.70
2022-12-18T19:26:30.375Z,26.92
2022-12-18T19:29:23.294Z,26.45
2022-12-18T19:31:49.733Z,24.25
2022-12-18T19:34:16.168Z,24.70
2022-12-18T19:36:42.622Z,26.60
2022-12-18T19:39:14.816Z,25.25
2022-12-18T19:41:42.358Z,26.45
2022-12-18T19:44:11.837Z,27.05
2022-12-18T19:46:41.627Z,25.25
2022-12-18T19:49:11.418Z,24.63
2022-12-18T19:51:42.954Z,26.17
2022-12-18T19:54:13.349Z,25.48
2022-12-18T19:56:43.405Z,26.85
2022-12-18T19:59:10.042Z,26.73
2022-12-18T20:01:36.568Z,25.42
2022-12-18T20:04:03.374Z,25.95
2022-12-18T20:06:36.172Z,25.50
2022-12-18T20:09:06.048Z,27.73
2022-12-18T20:11:36.388Z,28.45
2022-12-18T20:14:08.446Z,25.08
2022-12-18T20:16:35.320Z,25.90
2022-12-18T20:19:02.227Z,28.25
2022-12-18T20:21:31.854Z,24.58
2022-12-18T20:23:59.880Z,26.33
2022-12-18T20:26:26.844Z,28.52
2022-12-18T20:28:54.491Z,27.15
2022-12-18T20:31:21.011Z,25.42
2022-12-18T20:33:49.840Z,28.30
2022-12-18T20:36:21.359Z,25.35
2022-12-18T20:38:51.822Z,27.23
2022-12-18T20:41:22.590Z,28.20
2022-12-18T20:43:49.026Z,29.40
2022-12-18T20:46:18.800Z,30.65
2022-12-18T20:48:48.234Z,28.77
2022-12-18T20:51:17.101Z,26.00
2022-12-18T20:53:43.911Z,25.92
2022-12-18T20:56:21.616Z,28.90
2022-12-18T20:58:49.782Z,28.15
2022-12-18T21:01:19.137Z,29.85
2022-12-18T21:03:47.075Z,28.23
2022-12-18T21:06:15.530Z,28.38
2022-12-18T21:08:42.353Z,27.55
2022-12-18T21:11:46.944Z,29.67
2022-12-18T21:14:16.571Z,27.58
2022-12-18T21:16:44.083Z,29.25
2022-12-18T21:19:19.092Z,27.75
2022-12-18T21:21:47.241Z,29.45
2022-12-18T21:24:13.623Z,30.02
2022-12-18T21:26:45.483Z,29.75
2022-12-18T21:29:15.619Z,30.25
2022-12-18T21:31:42.792Z,28.35
2022-12-18T21:34:15.569Z,30.23
2022-12-18T21:36:42.091Z,29.67
2022-12-18T21:39:08.689Z,28.50
2022-12-18T21:41:53.770Z,29.55
2022-12-18T21:44:22.287Z,31.23
2022-12-18T21:46:55.179Z,29.73
2022-12-18T21:49:24.296Z,30.15
2022-12-18T21:51:53.694Z,31.52
2022-12-18T21:54:20.914Z,28.98
2022-12-18T21:56:58.436Z,30.35
2022-12-18T21:59:26.225Z,32.00
2022-12-18T22:01:54.842Z,29.40
2022-12-18T22:04:21.747Z,32.08
2022-12-18T22:06:48.703Z,31.10
2022-12-18T22:09:17.389Z,29.55
2022-12-18T22:11:44.513Z,29.83
2022-12-18T22:14:11.913Z,30.85
2022-12-18T22:16:38.370Z,30.88
2022-12-18T22:19:06.602Z,29.58
2022-12-18T22:21:35.520Z,31.83
2022-12-18T22:24:04.445Z,29.70
2022-12-18T22:26:39.305Z,31.38
2022-12-18T22:29:25.171Z,30.77
2022-12-18T22:31:52.463Z,29.90
2022-12-18T22:34:22.840Z,30.05
2022-12-18T22:36:49.852Z,29.83
2022-12-18T22:39:22.012Z,32.30
2022-12-18T22:41:49.034Z,32.25
2022-12-18T22:44:18.078Z,30.65
2022-12-18T22:46:49.325Z,30.73
2022-12-18T22:49:24.670Z,29.85
2022-12-18T22:51:52.440Z,30.40
2022-12-18T22:54:19.112Z,30.33
2022-12-18T22:56:49.092Z,29.95
2022-12-18T22:59:17.824Z,33.33
2022-12-18T23:01:48.045Z,29.95
2022-12-18T23:04:16.194Z,32.22
2022-12-18T23:06:43.412Z,31.80
2022-12-18T23:09:19.145Z,30.95
2022-12-18T23:11:46.690Z,31.23
2022-12-18T23:14:13.500Z,31.23
2022-12-18T23:16:40.053Z,30.63
2022-12-18T23:19:06.963Z,29.88
2022-12-18T23:21:33.390Z,30.90
2022-12-18T23:24:00.689Z,32.50
2022-12-18T23:26:27.489Z,32.15
2022-12-18T23:28:56.399Z,33.33
2022-12-18T23:31:29.192Z,31.40
2022-12-18T23:33:57.516Z,32.63
2022-12-18T23:36:24.419Z,31.83
2022-12-18T23:38:52.955Z,29.92
2022-12-18T23:41:21.362Z,30.88
2022-12-18T23:43:48.005Z,30.83
2022-12-18T23:46:25.273Z,31.58
2022-12-18T23:48:52.217Z,32.22
2022-12-18T23:51:23.344Z,31.73
2022-12-18T23:53:50.277Z,30.80
2022-12-18T23:56:16.727Z,33.60
2022-12-18T23:58:43.980Z,30.73
